sensor_id;sensor_type;location;lat;lon;timestamp;P1;durP1;ratioP1;P2;durP2;ratioP2
52816;SDS011;38687;43.330;21.924;2023-07-16T00:00:52;7.88;;;7.00;;
52816;SDS011;38687;43.330;21.924;2023-07-16T00:03:17;10.23;;;7.28;;
52816;SDS011;38687;43.330;21.924;2023-07-16T00:05:44;8.10;;;6.65;;
52816;SDS011;38687;43.330;21.924;2023-07-16T00:08:14;8.68;;;6.68;;
52816;SDS011;38687;43.330;21.924;2023-07-16T00:10:40;8.77;;;6.75;;
52816;SDS011;38687;43.330;21.924;2023-07-16T00:13:06;7.10;;;5.82;;
52816;SDS011;38687;43.330;21.924;2023-07-16T00:15:31;8.63;;;7.28;;
52816;SDS011;38687;43.330;21.924;2023-07-16T00:17:57;7.82;;;6.97;;
52816;SDS011;38687;43.330;21.924;2023-07-16T00:20:22;9.52;;;6.60;;
52816;SDS011;38687;43.330;21.924;2023-07-16T00:22:51;9.50;;;7.22;;
52816;SDS011;38687;43.330;21.924;2023-07-16T00:25:20;9.32;;;6.57;;
52816;SDS011;38687;43.330;21.924;2023-07-16T00:27:51;9.57;;;7.25;;
52816;SDS011;38687;43.330;21.924;2023-07-16T00:30:17;10.18;;;6.82;;
52816;SDS011;38687;43.330;21.924;2023-07-16T00:32:42;9.20;;;7.15;;
52816;SDS011;38687;43.330;21.924;2023-07-16T00:35:08;8.30;;;7.20;;
52816;SDS011;38687;43.330;21.924;2023-07-16T00:37:34;8.20;;;7.07;;
52816;SDS011;38687;43.330;21.924;2023-07-16T00:40:00;8.00;;;7.20;;
52816;SDS011;38687;43.330;21.924;2023-07-16T00:42:25;7.97;;;6.90;;
52816;SDS011;38687;43.330;21.924;2023-07-16T00:44:51;7.93;;;6.50;;
52816;SDS011;38687;43.330;21.924;2023-07-16T00:47:19;8.70;;;7.57;;
52816;SDS011;38687;43.330;21.924;2023-07-16T00:49:45;7.40;;;6.70;;
52816;SDS011;38687;43.330;21.924;2023-07-16T00:52:11;8.30;;;7.53;;
52816;SDS011;38687;43.330;21.924;2023-07-16T00:54:39;8.70;;;6.93;;
52816;SDS011;38687;43.330;21.924;2023-07-16T00:57:05;10.35;;;7.93;;
52816;SDS011;38687;43.330;21.924;2023-07-16T00:59:30;8.20;;;7.45;;
52816;SDS011;38687;43.330;21.924;2023-07-16T01:01:56;9.52;;;6.70;;
52816;SDS011;38687;43.330;21.924;2023-07-16T01:04:21;9.43;;;7.57;;
52816;SDS011;38687;43.330;21.924;2023-07-16T01:06:53;8.02;;;7.20;;
52816;SDS011;38687;43.330;21.924;2023-07-16T01:09:21;8.13;;;7.32;;
52816;SDS011;38687;43.330;21.924;2023-07-16T01:11:47;8.10;;;7.30;;
52816;SDS011;38687;43.330;21.924;2023-07-16T01:14:13;8.20;;;7.30;;
52816;SDS011;38687;43.330;21.924;2023-07-16T01:16:41;8.98;;;7.53;;
52816;SDS011;38687;43.330;21.924;2023-07-16T01:19:07;9.05;;;7.97;;
52816;SDS011;38687;43.330;21.924;2023-07-16T01:30:14;8.52;;;6.95;;
52816;SDS011;38687;43.330;21.924;2023-07-16T01:32:43;9.23;;;7.88;;
52816;SDS011;38687;43.330;21.924;2023-07-16T01:35:09;8.27;;;7.03;;
52816;SDS011;38687;43.330;21.924;2023-07-16T01:37:36;8.35;;;7.40;;
52816;SDS011;38687;43.330;21.924;2023-07-16T01:40:02;10.85;;;7.28;;
52816;SDS011;38687;43.330;21.924;2023-07-16T01:42:28;7.68;;;6.97;;
52816;SDS011;38687;43.330;21.924;2023-07-16T01:44:54;8.48;;;7.43;;
52816;SDS011;38687;43.330;21.924;2023-07-16T01:49:54;9.07;;;7.27;;
52816;SDS011;38687;43.330;21.924;2023-07-16T01:52:20;8.55;;;6.90;;
52816;SDS011;38687;43.330;21.924;2023-07-16T01:54:45;9.23;;;6.90;;
52816;SDS011;38687;43.330;21.924;2023-07-16T01:57:11;8.88;;;6.93;;
52816;SDS011;38687;43.330;21.924;2023-07-16T01:59:36;8.00;;;6.82;;
52816;SDS011;38687;43.330;21.924;2023-07-16T02:02:02;9.52;;;7.05;;
52816;SDS011;38687;43.330;21.924;2023-07-16T02:04:28;8.70;;;7.45;;
52816;SDS011;38687;43.330;21.924;2023-07-16T02:06:53;7.80;;;7.00;;
52816;SDS011;38687;43.330;21.924;2023-07-16T02:09:20;9.57;;;7.43;;
52816;SDS011;38687;43.330;21.924;2023-07-16T02:11:46;8.82;;;6.78;;
52816;SDS011;38687;43.330;21.924;2023-07-16T02:14:11;10.45;;;7.75;;
52816;SDS011;38687;43.330;21.924;2023-07-16T02:16:39;8.98;;;7.35;;
52816;SDS011;38687;43.330;21.924;2023-07-16T02:19:04;8.18;;;7.40;;
52816;SDS011;38687;43.330;21.924;2023-07-16T02:21:30;8.85;;;7.20;;
52816;SDS011;38687;43.330;21.924;2023-07-16T02:23:56;7.60;;;6.95;;
52816;SDS011;38687;43.330;21.924;2023-07-16T02:26:21;10.80;;;7.68;;
52816;SDS011;38687;43.330;21.924;2023-07-16T02:28:47;10.32;;;8.50;;
52816;SDS011;38687;43.330;21.924;2023-07-16T02:31:12;9.63;;;7.30;;
52816;SDS011;38687;43.330;21.924;2023-07-16T02:33:37;8.48;;;6.75;;
52816;SDS011;38687;43.330;21.924;2023-07-16T02:36:03;8.25;;;7.43;;
52816;SDS011;38687;43.330;21.924;2023-07-16T02:38:31;8.10;;;7.30;;
52816;SDS011;38687;43.330;21.924;2023-07-16T02:40:57;9.20;;;8.30;;
52816;SDS011;38687;43.330;21.924;2023-07-16T02:43:23;8.70;;;7.63;;
52816;SDS011;38687;43.330;21.924;2023-07-16T02:45:48;9.48;;;7.93;;
52816;SDS011;38687;43.330;21.924;2023-07-16T02:48:14;9.80;;;8.00;;
52816;SDS011;38687;43.330;21.924;2023-07-16T02:50:40;8.55;;;7.63;;
52816;SDS011;38687;43.330;21.924;2023-07-16T02:53:06;8.63;;;7.78;;
52816;SDS011;38687;43.330;21.924;2023-07-16T02:55:32;8.45;;;7.63;;
52816;SDS011;38687;43.330;21.924;2023-07-16T02:57:59;8.45;;;7.65;;
52816;SDS011;38687;43.330;21.924;2023-07-16T03:00:29;10.52;;;8.50;;
52816;SDS011;38687;43.330;21.924;2023-07-16T03:02:57;10.07;;;8.40;;
52816;SDS011;38687;43.330;21.924;2023-07-16T03:05:24;10.55;;;8.35;;
52816;SDS011;38687;43.330;21.924;2023-07-16T03:07:49;10.15;;;9.10;;
52816;SDS011;38687;43.330;21.924;2023-07-16T03:10:15;9.48;;;8.48;;
52816;SDS011;38687;43.330;21.924;2023-07-16T03:12:40;9.80;;;8.70;;
52816;SDS011;38687;43.330;21.924;2023-07-16T03:15:06;8.45;;;7.65;;
52816;SDS011;38687;43.330;21.924;2023-07-16T03:17:32;9.95;;;7.90;;
52816;SDS011;38687;43.330;21.924;2023-07-16T03:19:57;9.75;;;8.60;;
52816;SDS011;38687;43.330;21.924;2023-07-16T03:22:23;9.77;;;8.52;;
52816;SDS011;38687;43.330;21.924;2023-07-16T03:24:48;9.75;;;8.38;;
52816;SDS011;38687;43.330;21.924;2023-07-16T03:27:14;10.43;;;8.75;;
52816;SDS011;38687;43.330;21.924;2023-07-16T03:29:39;9.40;;;8.50;;
52816;SDS011;38687;43.330;21.924;2023-07-16T03:32:05;9.38;;;8.45;;
52816;SDS011;38687;43.330;21.924;2023-07-16T03:34:31;9.73;;;8.55;;
52816;SDS011;38687;43.330;21.924;2023-07-16T03:36:56;9.35;;;8.35;;
52816;SDS011;38687;43.330;21.924;2023-07-16T03:39:22;9.55;;;8.30;;
52816;SDS011;38687;43.330;21.924;2023-07-16T03:41:47;10.00;;;8.85;;
52816;SDS011;38687;43.330;21.924;2023-07-16T03:44:13;10.30;;;8.43;;
52816;SDS011;38687;43.330;21.924;2023-07-16T03:46:38;9.80;;;8.90;;
52816;SDS011;38687;43.330;21.924;2023-07-16T03:49:06;9.45;;;8.52;;
52816;SDS011;38687;43.330;21.924;2023-07-16T03:51:32;9.70;;;8.52;;
52816;SDS011;38687;43.330;21.924;2023-07-16T03:53:57;9.80;;;8.80;;
52816;SDS011;38687;43.330;21.924;2023-07-16T03:56:23;10.07;;;8.95;;
52816;SDS011;38687;43.330;21.924;2023-07-16T03:58:48;9.27;;;8.38;;
52816;SDS011;38687;43.330;21.924;2023-07-16T04:01:13;9.50;;;8.48;;
52816;SDS011;38687;43.330;21.924;2023-07-16T04:03:39;10.75;;;9.55;;
52816;SDS011;38687;43.330;21.924;2023-07-16T04:06:06;9.50;;;8.50;;
52816;SDS011;38687;43.330;21.924;2023-07-16T04:08:34;9.77;;;8.88;;
52816;SDS011;38687;43.330;21.924;2023-07-16T04:10:59;10.52;;;8.75;;
52816;SDS011;38687;43.330;21.924;2023-07-16T04:13:25;10.43;;;9.43;;
52816;SDS011;38687;43.330;21.924;2023-07-16T04:15:51;13.50;;;9.23;;
52816;SDS011;38687;43.330;21.924;2023-07-16T04:18:18;12.52;;;9.10;;
52816;SDS011;38687;43.330;21.924;2023-07-16T04:20:43;11.32;;;8.98;;
52816;SDS011;38687;43.330;21.924;2023-07-16T04:23:09;12.93;;;9.43;;
52816;SDS011;38687;43.330;21.924;2023-07-16T04:25:34;9.75;;;8.75;;
52816;SDS011;38687;43.330;21.924;2023-07-16T04:28:00;10.38;;;8.93;;
52816;SDS011;38687;43.330;21.924;2023-07-16T04:30:25;11.38;;;9.35;;
52816;SDS011;38687;43.330;21.924;2023-07-16T04:32:51;9.27;;;8.38;;
52816;SDS011;38687;43.330;21.924;2023-07-16T04:35:16;8.70;;;7.85;;
52816;SDS011;38687;43.330;21.924;2023-07-16T04:37:43;10.95;;;7.78;;
52816;SDS011;38687;43.330;21.924;2023-07-16T04:40:11;10.82;;;8.35;;
52816;SDS011;38687;43.330;21.924;2023-07-16T04:42:41;10.90;;;7.70;;
52816;SDS011;38687;43.330;21.924;2023-07-16T04:45:07;9.85;;;8.32;;
52816;SDS011;38687;43.330;21.924;2023-07-16T04:47:32;9.10;;;8.25;;
52816;SDS011;38687;43.330;21.924;2023-07-16T04:49:58;9.95;;;7.70;;
52816;SDS011;38687;43.330;21.924;2023-07-16T04:52:24;9.85;;;7.93;;
52816;SDS011;38687;43.330;21.924;2023-07-16T04:54:49;10.68;;;8.57;;
52816;SDS011;38687;43.330;21.924;2023-07-16T04:57:15;10.90;;;8.50;;
52816;SDS011;38687;43.330;21.924;2023-07-16T04:59:40;9.02;;;8.07;;
52816;SDS011;38687;43.330;21.924;2023-07-16T05:02:06;9.93;;;7.50;;
52816;SDS011;38687;43.330;21.924;2023-07-16T05:04:32;10.40;;;7.78;;
52816;SDS011;38687;43.330;21.924;2023-07-16T05:06:57;9.05;;;7.68;;
52816;SDS011;38687;43.330;21.924;2023-07-16T05:09:23;10.50;;;7.65;;
52816;SDS011;38687;43.330;21.924;2023-07-16T05:11:48;8.95;;;8.15;;
52816;SDS011;38687;43.330;21.924;2023-07-16T05:14:14;8.82;;;7.03;;
52816;SDS011;38687;43.330;21.924;2023-07-16T05:16:39;9.52;;;7.82;;
52816;SDS011;38687;43.330;21.924;2023-07-16T05:19:04;9.02;;;7.95;;
52816;SDS011;38687;43.330;21.924;2023-07-16T05:21:30;9.88;;;8.20;;
52816;SDS011;38687;43.330;21.924;2023-07-16T05:23:55;10.20;;;7.90;;
52816;SDS011;38687;43.330;21.924;2023-07-16T05:26:21;11.27;;;9.27;;
52816;SDS011;38687;43.330;21.924;2023-07-16T05:28:46;9.77;;;8.23;;
52816;SDS011;38687;43.330;21.924;2023-07-16T05:31:12;7.90;;;7.10;;
52816;SDS011;38687;43.330;21.924;2023-07-16T05:33:38;10.15;;;7.22;;
52816;SDS011;38687;43.330;21.924;2023-07-16T05:36:03;7.70;;;6.95;;
52816;SDS011;38687;43.330;21.924;2023-07-16T05:38:29;7.85;;;6.93;;
52816;SDS011;38687;43.330;21.924;2023-07-16T05:40:59;9.18;;;6.78;;
52816;SDS011;38687;43.330;21.924;2023-07-16T05:43:25;7.78;;;6.72;;
52816;SDS011;38687;43.330;21.924;2023-07-16T05:45:51;7.45;;;6.53;;
52816;SDS011;38687;43.330;21.924;2023-07-16T05:48:16;7.25;;;6.65;;
52816;SDS011;38687;43.330;21.924;2023-07-16T05:50:43;9.88;;;6.53;;
52816;SDS011;38687;43.330;21.924;2023-07-16T05:53:09;7.97;;;6.45;;
52816;SDS011;38687;43.330;21.924;2023-07-16T05:55:35;7.32;;;6.32;;
52816;SDS011;38687;43.330;21.924;2023-07-16T05:58:00;7.40;;;5.95;;
52816;SDS011;38687;43.330;21.924;2023-07-16T06:00:28;9.55;;;6.38;;
52816;SDS011;38687;43.330;21.924;2023-07-16T06:02:54;8.38;;;6.20;;
52816;SDS011;38687;43.330;21.924;2023-07-16T06:05:19;8.98;;;6.22;;
52816;SDS011;38687;43.330;21.924;2023-07-16T06:07:45;9.60;;;6.72;;
52816;SDS011;38687;43.330;21.924;2023-07-16T06:10:10;8.05;;;6.32;;
52816;SDS011;38687;43.330;21.924;2023-07-16T06:12:36;7.65;;;5.97;;
52816;SDS011;38687;43.330;21.924;2023-07-16T06:15:01;8.32;;;6.20;;
52816;SDS011;38687;43.330;21.924;2023-07-16T06:17:27;6.43;;;5.82;;
52816;SDS011;38687;43.330;21.924;2023-07-16T06:19:52;8.63;;;6.47;;
52816;SDS011;38687;43.330;21.924;2023-07-16T06:22:17;9.25;;;6.47;;
52816;SDS011;38687;43.330;21.924;2023-07-16T06:24:43;7.80;;;6.35;;
52816;SDS011;38687;43.330;21.924;2023-07-16T06:27:08;7.90;;;5.82;;
52816;SDS011;38687;43.330;21.924;2023-07-16T06:29:34;9.85;;;6.15;;
52816;SDS011;38687;43.330;21.924;2023-07-16T06:31:59;6.53;;;5.70;;
52816;SDS011;38687;43.330;21.924;2023-07-16T06:34:25;6.28;;;5.68;;
52816;SDS011;38687;43.330;21.924;2023-07-16T06:36:51;9.88;;;6.38;;
52816;SDS011;38687;43.330;21.924;2023-07-16T06:39:18;6.78;;;6.07;;
52816;SDS011;38687;43.330;21.924;2023-07-16T06:41:43;6.70;;;5.78;;
52816;SDS011;38687;43.330;21.924;2023-07-16T06:44:09;6.40;;;5.80;;
52816;SDS011;38687;43.330;21.924;2023-07-16T06:46:34;6.70;;;6.00;;
52816;SDS011;38687;43.330;21.924;2023-07-16T06:49:01;8.45;;;5.70;;
52816;SDS011;38687;43.330;21.924;2023-07-16T06:51:27;6.47;;;5.63;;
52816;SDS011;38687;43.330;21.924;2023-07-16T06:53:55;11.00;;;6.57;;
52816;SDS011;38687;43.330;21.924;2023-07-16T06:56:20;7.15;;;5.78;;
52816;SDS011;38687;43.330;21.924;2023-07-16T06:58:45;8.85;;;6.68;;
52816;SDS011;38687;43.330;21.924;2023-07-16T07:01:11;6.97;;;5.57;;
52816;SDS011;38687;43.330;21.924;2023-07-16T07:03:36;9.80;;;6.53;;
52816;SDS011;38687;43.330;21.924;2023-07-16T07:06:02;8.13;;;7.28;;
52816;SDS011;38687;43.330;21.924;2023-07-16T07:08:34;6.93;;;6.22;;
52816;SDS011;38687;43.330;21.924;2023-07-16T07:10:59;11.85;;;6.63;;
52816;SDS011;38687;43.330;21.924;2023-07-16T07:13:25;7.28;;;6.53;;
52816;SDS011;38687;43.330;21.924;2023-07-16T07:15:50;9.05;;;6.57;;
52816;SDS011;38687;43.330;21.924;2023-07-16T07:18:16;8.48;;;6.45;;
52816;SDS011;38687;43.330;21.924;2023-07-16T07:20:41;7.15;;;6.22;;
52816;SDS011;38687;43.330;21.924;2023-07-16T07:23:07;8.73;;;6.00;;
52816;SDS011;38687;43.330;21.924;2023-07-16T07:25:33;8.95;;;6.22;;
52816;SDS011;38687;43.330;21.924;2023-07-16T07:27:58;8.32;;;6.57;;
52816;SDS011;38687;43.330;21.924;2023-07-16T07:30:24;9.25;;;6.28;;
52816;SDS011;38687;43.330;21.924;2023-07-16T07:32:50;7.35;;;5.70;;
52816;SDS011;38687;43.330;21.924;2023-07-16T07:35:18;7.28;;;6.10;;
52816;SDS011;38687;43.330;21.924;2023-07-16T07:37:44;8.07;;;6.38;;
52816;SDS011;38687;43.330;21.924;2023-07-16T07:40:09;8.02;;;5.78;;
52816;SDS011;38687;43.330;21.924;2023-07-16T07:42:35;6.00;;;5.47;;
52816;SDS011;38687;43.330;21.924;2023-07-16T07:45:01;9.23;;;5.70;;
52816;SDS011;38687;43.330;21.924;2023-07-16T07:47:28;6.80;;;5.47;;
52816;SDS011;38687;43.330;21.924;2023-07-16T07:49:54;7.13;;;6.53;;
52816;SDS011;38687;43.330;21.924;2023-07-16T07:52:22;6.72;;;5.82;;
52816;SDS011;38687;43.330;21.924;2023-07-16T07:54:48;6.70;;;6.03;;
52816;SDS011;38687;43.330;21.924;2023-07-16T07:57:14;7.40;;;6.03;;
52816;SDS011;38687;43.330;21.924;2023-07-16T07:59:40;7.78;;;6.35;;
52816;SDS011;38687;43.330;21.924;2023-07-16T08:02:06;7.68;;;6.18;;
52816;SDS011;38687;43.330;21.924;2023-07-16T08:04:31;6.78;;;6.13;;
52816;SDS011;38687;43.330;21.924;2023-07-16T08:07:02;8.60;;;6.10;;
52816;SDS011;38687;43.330;21.924;2023-07-16T08:09:28;7.82;;;6.78;;
52816;SDS011;38687;43.330;21.924;2023-07-16T08:11:54;6.63;;;6.03;;
52816;SDS011;38687;43.330;21.924;2023-07-16T08:14:19;8.98;;;6.30;;
52816;SDS011;38687;43.330;21.924;2023-07-16T08:16:45;7.28;;;6.18;;
52816;SDS011;38687;43.330;21.924;2023-07-16T08:19:10;6.72;;;5.72;;
52816;SDS011;38687;43.330;21.924;2023-07-16T08:21:35;7.07;;;6.20;;
52816;SDS011;38687;43.330;21.924;2023-07-16T08:24:03;9.73;;;7.07;;
52816;SDS011;38687;43.330;21.924;2023-07-16T08:26:37;7.57;;;6.50;;
52816;SDS011;38687;43.330;21.924;2023-07-16T08:29:03;8.27;;;6.07;;
52816;SDS011;38687;43.330;21.924;2023-07-16T08:31:29;8.02;;;6.57;;
52816;SDS011;38687;43.330;21.924;2023-07-16T08:33:54;9.00;;;6.53;;
52816;SDS011;38687;43.330;21.924;2023-07-16T08:36:23;8.52;;;7.07;;
52816;SDS011;38687;43.330;21.924;2023-07-16T08:38:52;7.55;;;6.60;;
52816;SDS011;38687;43.330;21.924;2023-07-16T08:41:17;7.93;;;7.13;;
52816;SDS011;38687;43.330;21.924;2023-07-16T08:43:51;9.48;;;7.60;;
52816;SDS011;38687;43.330;21.924;2023-07-16T08:46:16;7.93;;;7.03;;
52816;SDS011;38687;43.330;21.924;2023-07-16T08:48:42;8.02;;;7.13;;
52816;SDS011;38687;43.330;21.924;2023-07-16T08:51:09;9.77;;;6.88;;
52816;SDS011;38687;43.330;21.924;2023-07-16T08:53:39;9.73;;;7.28;;
52816;SDS011;38687;43.330;21.924;2023-07-16T08:56:04;13.05;;;7.55;;
52816;SDS011;38687;43.330;21.924;2023-07-16T08:58:30;7.80;;;7.00;;
52816;SDS011;38687;43.330;21.924;2023-07-16T09:00:56;8.88;;;6.78;;
52816;SDS011;38687;43.330;21.924;2023-07-16T09:03:24;9.93;;;7.30;;
52816;SDS011;38687;43.330;21.924;2023-07-16T09:05:50;12.93;;;6.95;;
52816;SDS011;38687;43.330;21.924;2023-07-16T09:08:15;8.23;;;7.47;;
52816;SDS011;38687;43.330;21.924;2023-07-16T09:10:42;9.82;;;7.53;;
52816;SDS011;38687;43.330;21.924;2023-07-16T09:13:08;8.25;;;7.13;;
52816;SDS011;38687;43.330;21.924;2023-07-16T09:15:34;8.02;;;7.22;;
52816;SDS011;38687;43.330;21.924;2023-07-16T09:18:00;9.38;;;7.18;;
52816;SDS011;38687;43.330;21.924;2023-07-16T09:20:26;10.57;;;7.50;;
52816;SDS011;38687;43.330;21.924;2023-07-16T09:22:57;8.35;;;7.40;;
52816;SDS011;38687;43.330;21.924;2023-07-16T09:25:30;9.73;;;7.43;;
52816;SDS011;38687;43.330;21.924;2023-07-16T09:27:57;9.07;;;6.72;;
52816;SDS011;38687;43.330;21.924;2023-07-16T09:30:30;8.57;;;7.68;;
52816;SDS011;38687;43.330;21.924;2023-07-16T09:32:56;10.02;;;7.63;;
52816;SDS011;38687;43.330;21.924;2023-07-16T09:35:25;9.25;;;7.25;;
52816;SDS011;38687;43.330;21.924;2023-07-16T09:37:52;10.40;;;6.97;;
52816;SDS011;38687;43.330;21.924;2023-07-16T09:40:17;10.95;;;7.78;;
52816;SDS011;38687;43.330;21.924;2023-07-16T09:42:43;8.13;;;7.32;;
52816;SDS011;38687;43.330;21.924;2023-07-16T09:45:17;8.75;;;7.70;;
52816;SDS011;38687;43.330;21.924;2023-07-16T09:47:43;11.60;;;7.95;;
52816;SDS011;38687;43.330;21.924;2023-07-16T09:50:09;11.25;;;7.53;;
52816;SDS011;38687;43.330;21.924;2023-07-16T09:52:39;8.52;;;7.63;;
52816;SDS011;38687;43.330;21.924;2023-07-16T09:55:07;11.98;;;7.90;;
52816;SDS011;38687;43.330;21.924;2023-07-16T09:57:35;8.73;;;7.60;;
52816;SDS011;38687;43.330;21.924;2023-07-16T10:00:03;14.43;;;8.15;;
52816;SDS011;38687;43.330;21.924;2023-07-16T10:02:33;10.32;;;8.18;;
52816;SDS011;38687;43.330;21.924;2023-07-16T10:05:00;11.95;;;7.80;;
52816;SDS011;38687;43.330;21.924;2023-07-16T10:07:25;8.60;;;7.80;;
52816;SDS011;38687;43.330;21.924;2023-07-16T10:09:52;11.50;;;8.35;;
52816;SDS011;38687;43.330;21.924;2023-07-16T10:12:22;11.77;;;8.95;;
52816;SDS011;38687;43.330;21.924;2023-07-16T10:14:49;8.73;;;7.43;;
52816;SDS011;38687;43.330;21.924;2023-07-16T10:17:25;12.65;;;8.38;;
52816;SDS011;38687;43.330;21.924;2023-07-16T10:25:08;11.90;;;8.23;;
52816;SDS011;38687;43.330;21.924;2023-07-16T10:27:35;10.73;;;8.50;;
52816;SDS011;38687;43.330;21.924;2023-07-16T10:30:02;12.38;;;8.55;;
52816;SDS011;38687;43.330;21.924;2023-07-16T10:32:32;10.95;;;9.10;;
52816;SDS011;38687;43.330;21.924;2023-07-16T10:34:58;11.18;;;10.07;;
52816;SDS011;38687;43.330;21.924;2023-07-16T10:37:24;10.23;;;8.38;;
52816;SDS011;38687;43.330;21.924;2023-07-16T10:39:51;11.48;;;8.60;;
52816;SDS011;38687;43.330;21.924;2023-07-16T10:42:22;10.07;;;8.02;;
52816;SDS011;38687;43.330;21.924;2023-07-16T10:44:52;13.23;;;8.32;;
52816;SDS011;38687;43.330;21.924;2023-07-16T10:47:40;15.10;;;8.93;;
52816;SDS011;38687;43.330;21.924;2023-07-16T10:50:18;11.48;;;8.75;;
52816;SDS011;38687;43.330;21.924;2023-07-16T10:52:50;14.70;;;9.52;;
52816;SDS011;38687;43.330;21.924;2023-07-16T10:55:22;9.82;;;8.80;;
52816;SDS011;38687;43.330;21.924;2023-07-16T10:57:48;11.48;;;8.55;;
52816;SDS011;38687;43.330;21.924;2023-07-16T11:00:14;9.57;;;8.55;;
52816;SDS011;38687;43.330;21.924;2023-07-16T11:02:41;10.07;;;9.07;;
52816;SDS011;38687;43.330;21.924;2023-07-16T11:05:11;11.10;;;8.90;;
52816;SDS011;38687;43.330;21.924;2023-07-16T11:07:43;12.55;;;8.52;;
52816;SDS011;38687;43.330;21.924;2023-07-16T11:10:09;10.55;;;9.35;;
52816;SDS011;38687;43.330;21.924;2023-07-16T11:12:35;10.80;;;9.45;;
52816;SDS011;38687;43.330;21.924;2023-07-16T11:15:00;10.23;;;8.30;;
52816;SDS011;38687;43.330;21.924;2023-07-16T11:17:26;10.07;;;8.50;;
52816;SDS011;38687;43.330;21.924;2023-07-16T11:19:52;10.30;;;8.52;;
52816;SDS011;38687;43.330;21.924;2023-07-16T11:22:18;10.38;;;8.70;;
52816;SDS011;38687;43.330;21.924;2023-07-16T11:24:47;10.88;;;8.82;;
52816;SDS011;38687;43.330;21.924;2023-07-16T11:29:40;11.23;;;8.70;;
52816;SDS011;38687;43.330;21.924;2023-07-16T11:32:35;10.48;;;9.45;;
52816;SDS011;38687;43.330;21.924;2023-07-16T11:35:05;10.57;;;9.43;;
52816;SDS011;38687;43.330;21.924;2023-07-16T11:37:32;12.23;;;8.68;;
52816;SDS011;38687;43.330;21.924;2023-07-16T11:40:00;10.77;;;9.15;;
52816;SDS011;38687;43.330;21.924;2023-07-16T11:45:02;14.77;;;8.88;;
52816;SDS011;38687;43.330;21.924;2023-07-16T11:47:28;12.20;;;8.65;;
52816;SDS011;38687;43.330;21.924;2023-07-16T11:49:54;10.38;;;8.00;;
52816;SDS011;38687;43.330;21.924;2023-07-16T11:52:20;12.02;;;8.18;;
52816;SDS011;38687;43.330;21.924;2023-07-16T11:54:47;11.75;;;8.70;;
52816;SDS011;38687;43.330;21.924;2023-07-16T11:57:12;14.13;;;8.65;;
52816;SDS011;38687;43.330;21.924;2023-07-16T11:59:38;11.05;;;8.68;;
52816;SDS011;38687;43.330;21.924;2023-07-16T12:02:03;12.32;;;8.68;;
52816;SDS011;38687;43.330;21.924;2023-07-16T12:04:29;11.48;;;8.52;;
52816;SDS011;38687;43.330;21.924;2023-07-16T12:06:54;9.70;;;7.88;;
52816;SDS011;38687;43.330;21.924;2023-07-16T12:09:20;12.50;;;8.82;;
52816;SDS011;38687;43.330;21.924;2023-07-16T12:11:45;10.73;;;8.63;;
52816;SDS011;38687;43.330;21.924;2023-07-16T12:14:11;11.13;;;8.77;;
52816;SDS011;38687;43.330;21.924;2023-07-16T12:16:38;8.55;;;7.75;;
52816;SDS011;38687;43.330;21.924;2023-07-16T12:19:03;9.98;;;8.13;;
52816;SDS011;38687;43.330;21.924;2023-07-16T12:21:30;11.02;;;8.35;;
52816;SDS011;38687;43.330;21.924;2023-07-16T12:23:55;10.52;;;8.85;;
52816;SDS011;38687;43.330;21.924;2023-07-16T12:26:21;11.95;;;8.80;;
52816;SDS011;38687;43.330;21.924;2023-07-16T12:28:46;12.20;;;9.05;;
52816;SDS011;38687;43.330;21.924;2023-07-16T12:31:11;13.48;;;8.77;;
52816;SDS011;38687;43.330;21.924;2023-07-16T12:33:37;11.95;;;9.45;;
52816;SDS011;38687;43.330;21.924;2023-07-16T12:36:03;13.85;;;8.70;;
52816;SDS011;38687;43.330;21.924;2023-07-16T12:38:29;11.40;;;8.55;;
52816;SDS011;38687;43.330;21.924;2023-07-16T12:40:54;12.23;;;8.50;;
52816;SDS011;38687;43.330;21.924;2023-07-16T12:43:20;13.18;;;9.18;;
52816;SDS011;38687;43.330;21.924;2023-07-16T12:45:45;10.15;;;8.82;;
52816;SDS011;38687;43.330;21.924;2023-07-16T12:48:11;9.30;;;8.40;;
52816;SDS011;38687;43.330;21.924;2023-07-16T12:50:36;11.93;;;8.68;;
52816;SDS011;38687;43.330;21.924;2023-07-16T12:53:02;15.38;;;9.68;;
52816;SDS011;38687;43.330;21.924;2023-07-16T12:55:28;11.93;;;8.85;;
52816;SDS011;38687;43.330;21.924;2023-07-16T12:57:56;13.98;;;9.27;;
52816;SDS011;38687;43.330;21.924;2023-07-16T13:00:22;10.85;;;9.20;;
52816;SDS011;38687;43.330;21.924;2023-07-16T13:02:47;11.45;;;9.18;;
52816;SDS011;38687;43.330;21.924;2023-07-16T13:05:13;10.95;;;9.05;;
52816;SDS011;38687;43.330;21.924;2023-07-16T13:07:38;10.45;;;8.43;;
52816;SDS011;38687;43.330;21.924;2023-07-16T13:10:04;13.75;;;8.93;;
52816;SDS011;38687;43.330;21.924;2023-07-16T13:12:30;11.95;;;8.27;;
52816;SDS011;38687;43.330;21.924;2023-07-16T13:14:55;10.68;;;8.90;;
52816;SDS011;38687;43.330;21.924;2023-07-16T13:17:20;9.30;;;8.23;;
52816;SDS011;38687;43.330;21.924;2023-07-16T13:19:46;11.57;;;8.77;;
52816;SDS011;38687;43.330;21.924;2023-07-16T13:22:12;12.95;;;9.07;;
52816;SDS011;38687;43.330;21.924;2023-07-16T13:24:39;11.82;;;7.97;;
52816;SDS011;38687;43.330;21.924;2023-07-16T13:27:04;12.73;;;8.07;;
52816;SDS011;38687;43.330;21.924;2023-07-16T13:29:29;8.95;;;8.00;;
52816;SDS011;38687;43.330;21.924;2023-07-16T13:31:55;9.50;;;8.15;;
52816;SDS011;38687;43.330;21.924;2023-07-16T13:34:20;12.20;;;8.15;;
52816;SDS011;38687;43.330;21.924;2023-07-16T13:36:46;10.88;;;7.88;;
52816;SDS011;38687;43.330;21.924;2023-07-16T13:39:11;12.90;;;8.77;;
52816;SDS011;38687;43.330;21.924;2023-07-16T13:41:39;13.00;;;7.60;;
52816;SDS011;38687;43.330;21.924;2023-07-16T13:44:04;11.55;;;8.88;;
52816;SDS011;38687;43.330;21.924;2023-07-16T13:46:30;10.98;;;8.00;;
52816;SDS011;38687;43.330;21.924;2023-07-16T13:48:55;9.75;;;7.82;;
52816;SDS011;38687;43.330;21.924;2023-07-16T13:51:22;10.38;;;7.53;;
52816;SDS011;38687;43.330;21.924;2023-07-16T13:53:47;11.18;;;7.13;;
52816;SDS011;38687;43.330;21.924;2023-07-16T13:56:13;10.98;;;7.50;;
52816;SDS011;38687;43.330;21.924;2023-07-16T13:58:38;7.97;;;7.15;;
52816;SDS011;38687;43.330;21.924;2023-07-16T14:01:03;10.15;;;7.07;;
52816;SDS011;38687;43.330;21.924;2023-07-16T14:03:29;11.07;;;7.00;;
52816;SDS011;38687;43.330;21.924;2023-07-16T14:05:54;9.55;;;6.63;;
52816;SDS011;38687;43.330;21.924;2023-07-16T14:08:20;9.38;;;7.20;;
52816;SDS011;38687;43.330;21.924;2023-07-16T14:10:46;10.57;;;7.03;;
52816;SDS011;38687;43.330;21.924;2023-07-16T14:13:11;8.52;;;7.18;;
52816;SDS011;38687;43.330;21.924;2023-07-16T14:15:37;9.88;;;6.90;;
52816;SDS011;38687;43.330;21.924;2023-07-16T14:18:03;8.90;;;6.68;;
52816;SDS011;38687;43.330;21.924;2023-07-16T14:20:28;7.13;;;6.20;;
52816;SDS011;38687;43.330;21.924;2023-07-16T14:22:54;7.38;;;6.53;;
52816;SDS011;38687;43.330;21.924;2023-07-16T14:25:19;7.70;;;6.68;;
52816;SDS011;38687;43.330;21.924;2023-07-16T14:27:45;7.57;;;6.60;;
52816;SDS011;38687;43.330;21.924;2023-07-16T14:30:10;7.22;;;6.50;;
52816;SDS011;38687;43.330;21.924;2023-07-16T14:32:36;8.35;;;6.78;;
52816;SDS011;38687;43.330;21.924;2023-07-16T14:35:02;10.38;;;6.85;;
52816;SDS011;38687;43.330;21.924;2023-07-16T14:37:28;9.45;;;6.53;;
52816;SDS011;38687;43.330;21.924;2023-07-16T14:39:54;9.02;;;5.90;;
52816;SDS011;38687;43.330;21.924;2023-07-16T14:42:19;7.10;;;6.40;;
52816;SDS011;38687;43.330;21.924;2023-07-16T14:44:45;7.00;;;6.30;;
52816;SDS011;38687;43.330;21.924;2023-07-16T14:47:10;6.90;;;6.10;;